sensor_id;sensor_type;location;lat;lon;timestamp;temperature;humidity
81630;DHT22;71039;49.500;10.418;2023-10-13T00:01:37;18.00;64.80
81630;DHT22;71039;49.500;10.418;2023-10-13T00:04:03;18.00;64.90
81630;DHT22;71039;49.500;10.418;2023-10-13T00:06:28;17.90;64.90
81630;DHT22;71039;49.500;10.418;2023-10-13T00:08:54;17.90;65.00
81630;DHT22;71039;49.500;10.418;2023-10-13T00:11:19;17.90;65.00
81630;DHT22;71039;49.500;10.418;2023-10-13T00:13:45;17.90;65.10
81630;DHT22;71039;49.500;10.418;2023-10-13T00:16:10;17.90;65.10
81630;DHT22;71039;49.500;10.418;2023-10-13T00:18:36;17.90;65.20
81630;DHT22;71039;49.500;10.418;2023-10-13T00:21:02;17.90;65.20
81630;DHT22;71039;49.500;10.418;2023-10-13T00:23:28;17.90;65.20
81630;DHT22;71039;49.500;10.418;2023-10-13T00:25:54;18.00;65.30
81630;DHT22;71039;49.500;10.418;2023-10-13T00:28:19;18.00;65.30
81630;DHT22;71039;49.500;10.418;2023-10-13T00:30:45;18.00;65.30
81630;DHT22;71039;49.500;10.418;2023-10-13T00:33:10;18.00;65.30
81630;DHT22;71039;49.500;10.418;2023-10-13T00:35:36;18.00;65.40
81630;DHT22;71039;49.500;10.418;2023-10-13T00:38:03;18.00;65.30
81630;DHT22;71039;49.500;10.418;2023-10-13T00:40:28;18.00;65.40
81630;DHT22;71039;49.500;10.418;2023-10-13T00:42:54;18.00;65.40
81630;DHT22;71039;49.500;10.418;2023-10-13T00:45:20;18.00;65.40
81630;DHT22;71039;49.500;10.418;2023-10-13T00:47:45;18.00;65.40
81630;DHT22;71039;49.500;10.418;2023-10-13T00:50:11;18.00;65.40
81630;DHT22;71039;49.500;10.418;2023-10-13T00:52:37;18.00;65.40
81630;DHT22;71039;49.500;10.418;2023-10-13T00:55:04;18.00;65.40
81630;DHT22;71039;49.500;10.418;2023-10-13T00:57:30;18.00;65.40
81630;DHT22;71039;49.500;10.418;2023-10-13T00:59:56;18.00;65.30
81630;DHT22;71039;49.500;10.418;2023-10-13T01:02:22;18.00;65.30
81630;DHT22;71039;49.500;10.418;2023-10-13T01:04:48;18.00;65.20
81630;DHT22;71039;49.500;10.418;2023-10-13T01:07:14;18.00;65.20
81630;DHT22;71039;49.500;10.418;2023-10-13T01:09:44;18.00;65.20
81630;DHT22;71039;49.500;10.418;2023-10-13T01:12:09;18.00;65.20
81630;DHT22;71039;49.500;10.418;2023-10-13T01:14:35;18.00;65.10
81630;DHT22;71039;49.500;10.418;2023-10-13T01:17:00;18.00;65.10
81630;DHT22;71039;49.500;10.418;2023-10-13T01:19:26;18.00;65.00
81630;DHT22;71039;49.500;10.418;2023-10-13T01:21:51;18.00;65.00
81630;DHT22;71039;49.500;10.418;2023-10-13T01:24:17;18.00;65.00
81630;DHT22;71039;49.500;10.418;2023-10-13T01:26:43;18.00;65.00
81630;DHT22;71039;49.500;10.418;2023-10-13T01:29:08;18.00;65.10
81630;DHT22;71039;49.500;10.418;2023-10-13T01:31:34;17.90;65.10
81630;DHT22;71039;49.500;10.418;2023-10-13T01:34:00;17.90;65.10
81630;DHT22;71039;49.500;10.418;2023-10-13T01:36:29;17.90;65.00
81630;DHT22;71039;49.500;10.418;2023-10-13T01:38:54;17.80;65.00
81630;DHT22;71039;49.500;10.418;2023-10-13T01:41:21;17.80;65.00
81630;DHT22;71039;49.500;10.418;2023-10-13T01:43:47;17.80;65.10
81630;DHT22;71039;49.500;10.418;2023-10-13T01:46:12;17.80;65.20
81630;DHT22;71039;49.500;10.418;2023-10-13T01:48:38;17.80;65.30
81630;DHT22;71039;49.500;10.418;2023-10-13T01:51:03;17.80;65.50
81630;DHT22;71039;49.500;10.418;2023-10-13T01:53:29;17.80;65.60
81630;DHT22;71039;49.500;10.418;2023-10-13T01:55:55;17.80;65.70
81630;DHT22;71039;49.500;10.418;2023-10-13T01:58:20;17.80;65.80
81630;DHT22;71039;49.500;10.418;2023-10-13T02:00:46;17.80;65.90
81630;DHT22;71039;49.500;10.418;2023-10-13T02:03:12;17.80;65.90
81630;DHT22;71039;49.500;10.418;2023-10-13T02:05:37;17.80;65.90
81630;DHT22;71039;49.500;10.418;2023-10-13T02:08:03;17.80;66.00
81630;DHT22;71039;49.500;10.418;2023-10-13T02:10:29;17.80;66.00
81630;DHT22;71039;49.500;10.418;2023-10-13T02:12:54;17.80;66.10
81630;DHT22;71039;49.500;10.418;2023-10-13T02:15:20;17.80;66.10
81630;DHT22;71039;49.500;10.418;2023-10-13T02:17:45;17.80;66.10
81630;DHT22;71039;49.500;10.418;2023-10-13T02:20:11;17.80;66.10
81630;DHT22;71039;49.500;10.418;2023-10-13T02:22:36;17.80;66.10
81630;DHT22;71039;49.500;10.418;2023-10-13T02:25:03;17.90;66.10
81630;DHT22;71039;49.500;10.418;2023-10-13T02:27:29;17.90;66.10
81630;DHT22;71039;49.500;10.418;2023-10-13T02:29:54;18.00;66.10
81630;DHT22;71039;49.500;10.418;2023-10-13T02:32:20;18.00;66.10
81630;DHT22;71039;49.500;10.418;2023-10-13T02:34:45;18.00;66.00
81630;DHT22;71039;49.500;10.418;2023-10-13T02:37:11;18.00;66.00
81630;DHT22;71039;49.500;10.418;2023-10-13T02:39:37;18.00;65.90
81630;DHT22;71039;49.500;10.418;2023-10-13T02:42:03;18.00;65.90
81630;DHT22;71039;49.500;10.418;2023-10-13T02:44:28;18.00;65.90
81630;DHT22;71039;49.500;10.418;2023-10-13T02:46:54;18.00;65.90
81630;DHT22;71039;49.500;10.418;2023-10-13T02:49:20;18.00;65.80
81630;DHT22;71039;49.500;10.418;2023-10-13T02:51:45;18.00;65.80
81630;DHT22;71039;49.500;10.418;2023-10-13T02:54:11;18.00;65.80
81630;DHT22;71039;49.500;10.418;2023-10-13T02:56:37;18.00;65.80
81630;DHT22;71039;49.500;10.418;2023-10-13T02:59:03;18.00;65.80
81630;DHT22;71039;49.500;10.418;2023-10-13T03:01:29;18.00;65.70
81630;DHT22;71039;49.500;10.418;2023-10-13T03:03:55;18.00;65.70
81630;DHT22;71039;49.500;10.418;2023-10-13T03:06:21;18.00;65.70
81630;DHT22;71039;49.500;10.418;2023-10-13T03:08:47;18.00;65.60
81630;DHT22;71039;49.500;10.418;2023-10-13T03:11:14;17.90;65.50
81630;DHT22;71039;49.500;10.418;2023-10-13T03:13:40;17.90;65.40
81630;DHT22;71039;49.500;10.418;2023-10-13T03:16:15;17.80;65.30
81630;DHT22;71039;49.500;10.418;2023-10-13T03:18:44;17.80;65.30
81630;DHT22;71039;49.500;10.418;2023-10-13T03:21:10;17.80;65.00
81630;DHT22;71039;49.500;10.418;2023-10-13T03:23:35;17.80;65.00
81630;DHT22;71039;49.500;10.418;2023-10-13T03:26:01;17.80;64.90
81630;DHT22;71039;49.500;10.418;2023-10-13T03:28:26;17.70;64.80
81630;DHT22;71039;49.500;10.418;2023-10-13T03:30:52;17.60;64.80
81630;DHT22;71039;49.500;10.418;2023-10-13T03:33:17;17.60;64.80
81630;DHT22;71039;49.500;10.418;2023-10-13T03:35:43;17.50;64.80
81630;DHT22;71039;49.500;10.418;2023-10-13T03:38:09;17.50;64.80
81630;DHT22;71039;49.500;10.418;2023-10-13T03:40:34;17.50;64.80
81630;DHT22;71039;49.500;10.418;2023-10-13T03:43:00;17.40;64.80
81630;DHT22;71039;49.500;10.418;2023-10-13T03:45:26;17.40;64.80
81630;DHT22;71039;49.500;10.418;2023-10-13T03:47:52;17.30;64.80
81630;DHT22;71039;49.500;10.418;2023-10-13T03:50:19;17.20;64.80
81630;DHT22;71039;49.500;10.418;2023-10-13T03:52:44;17.20;64.90
81630;DHT22;71039;49.500;10.418;2023-10-13T03:55:10;17.20;64.90
81630;DHT22;71039;49.500;10.418;2023-10-13T03:57:35;17.20;64.90
81630;DHT22;71039;49.500;10.418;2023-10-13T04:00:01;17.10;65.00
81630;DHT22;71039;49.500;10.418;2023-10-13T04:02:26;17.00;65.00
81630;DHT22;71039;49.500;10.418;2023-10-13T04:04:52;17.00;65.10
81630;DHT22;71039;49.500;10.418;2023-10-13T04:07:17;17.00;65.10
81630;DHT22;71039;49.500;10.418;2023-10-13T04:09:43;17.00;65.20
81630;DHT22;71039;49.500;10.418;2023-10-13T04:12:09;16.90;65.20
81630;DHT22;71039;49.500;10.418;2023-10-13T04:14:36;16.90;65.20
81630;DHT22;71039;49.500;10.418;2023-10-13T04:17:02;16.90;65.30
81630;DHT22;71039;49.500;10.418;2023-10-13T04:19:28;16.80;65.20
81630;DHT22;71039;49.500;10.418;2023-10-13T04:21:53;16.80;65.20
81630;DHT22;71039;49.500;10.418;2023-10-13T04:24:19;16.80;65.20
81630;DHT22;71039;49.500;10.418;2023-10-13T04:26:45;16.70;65.20
81630;DHT22;71039;49.500;10.418;2023-10-13T04:29:13;16.70;65.30
81630;DHT22;71039;49.500;10.418;2023-10-13T04:31:38;16.70;65.60
81630;DHT22;71039;49.500;10.418;2023-10-13T04:34:04;16.60;65.80
81630;DHT22;71039;49.500;10.418;2023-10-13T04:36:29;16.60;65.90
81630;DHT22;71039;49.500;10.418;2023-10-13T04:38:57;16.60;66.00
81630;DHT22;71039;49.500;10.418;2023-10-13T04:41:39;16.60;66.10
81630;DHT22;71039;49.500;10.418;2023-10-13T04:44:13;16.60;66.40
81630;DHT22;71039;49.500;10.418;2023-10-13T04:46:38;16.50;66.20
81630;DHT22;71039;49.500;10.418;2023-10-13T04:49:04;16.60;66.00
81630;DHT22;71039;49.500;10.418;2023-10-13T04:51:29;16.50;66.00
81630;DHT22;71039;49.500;10.418;2023-10-13T04:53:55;16.50;65.90
81630;DHT22;71039;49.500;10.418;2023-10-13T04:56:21;16.50;65.90
81630;DHT22;71039;49.500;10.418;2023-10-13T04:58:46;16.50;65.80
81630;DHT22;71039;49.500;10.418;2023-10-13T05:01:12;16.50;65.80
81630;DHT22;71039;49.500;10.418;2023-10-13T05:03:37;16.50;65.70
81630;DHT22;71039;49.500;10.418;2023-10-13T05:06:06;16.40;65.70
81630;DHT22;71039;49.500;10.418;2023-10-13T05:08:31;16.40;65.70
81630;DHT22;71039;49.500;10.418;2023-10-13T05:10:57;16.40;65.70
81630;DHT22;71039;49.500;10.418;2023-10-13T05:13:22;16.40;65.70
81630;DHT22;71039;49.500;10.418;2023-10-13T05:15:49;16.40;65.70
81630;DHT22;71039;49.500;10.418;2023-10-13T05:18:15;16.40;65.70
81630;DHT22;71039;49.500;10.418;2023-10-13T05:20:41;16.40;65.70
81630;DHT22;71039;49.500;10.418;2023-10-13T05:23:06;16.30;65.70
81630;DHT22;71039;49.500;10.418;2023-10-13T05:25:35;16.30;65.70
81630;DHT22;71039;49.500;10.418;2023-10-13T05:28:01;16.20;65.70
81630;DHT22;71039;49.500;10.418;2023-10-13T05:30:26;16.20;65.70
81630;DHT22;71039;49.500;10.418;2023-10-13T05:32:52;16.20;65.80
81630;DHT22;71039;49.500;10.418;2023-10-13T05:35:20;16.20;65.80
81630;DHT22;71039;49.500;10.418;2023-10-13T05:37:46;16.20;65.80
81630;DHT22;71039;49.500;10.418;2023-10-13T05:40:11;16.10;65.90
81630;DHT22;71039;49.500;10.418;2023-10-13T05:42:37;16.10;66.00
81630;DHT22;71039;49.500;10.418;2023-10-13T05:45:02;16.10;66.10
81630;DHT22;71039;49.500;10.418;2023-10-13T05:47:28;16.10;66.10
81630;DHT22;71039;49.500;10.418;2023-10-13T05:49:53;16.10;66.10
81630;DHT22;71039;49.500;10.418;2023-10-13T05:52:19;16.00;66.20
81630;DHT22;71039;49.500;10.418;2023-10-13T05:54:47;16.00;66.40
81630;DHT22;71039;49.500;10.418;2023-10-13T05:57:13;16.00;66.60
81630;DHT22;71039;49.500;10.418;2023-10-13T05:59:38;16.00;66.70
81630;DHT22;71039;49.500;10.418;2023-10-13T06:02:04;16.00;66.80
81630;DHT22;71039;49.500;10.418;2023-10-13T06:04:30;16.00;66.80
81630;DHT22;71039;49.500;10.418;2023-10-13T06:06:55;16.10;66.80
81630;DHT22;71039;49.500;10.418;2023-10-13T06:09:23;16.10;66.70
81630;DHT22;71039;49.500;10.418;2023-10-13T06:11:48;16.10;66.70
81630;DHT22;71039;49.500;10.418;2023-10-13T06:14:14;16.10;66.70
81630;DHT22;71039;49.500;10.418;2023-10-13T06:16:39;16.10;66.70
81630;DHT22;71039;49.500;10.418;2023-10-13T06:19:05;16.20;66.70
81630;DHT22;71039;49.500;10.418;2023-10-13T06:21:30;16.20;66.70
81630;DHT22;71039;49.500;10.418;2023-10-13T06:23:56;16.20;66.70
81630;DHT22;71039;49.500;10.418;2023-10-13T06:26:21;16.20;66.70
81630;DHT22;71039;49.500;10.418;2023-10-13T06:28:47;16.30;66.70
81630;DHT22;71039;49.500;10.418;2023-10-13T06:31:12;16.40;66.70
81630;DHT22;71039;49.500;10.418;2023-10-13T06:33:38;16.40;66.70
81630;DHT22;71039;49.500;10.418;2023-10-13T06:36:05;16.40;66.70
81630;DHT22;71039;49.500;10.418;2023-10-13T06:38:31;16.40;66.70
81630;DHT22;71039;49.500;10.418;2023-10-13T06:40:57;16.40;66.80
81630;DHT22;71039;49.500;10.418;2023-10-13T06:43:22;16.50;66.60
81630;DHT22;71039;49.500;10.418;2023-10-13T06:45:48;16.50;66.50
81630;DHT22;71039;49.500;10.418;2023-10-13T06:48:13;16.60;66.50
81630;DHT22;71039;49.500;10.418;2023-10-13T06:50:39;16.60;66.50
81630;DHT22;71039;49.500;10.418;2023-10-13T06:53:05;16.70;66.50
81630;DHT22;71039;49.500;10.418;2023-10-13T06:55:31;16.70;66.50
81630;DHT22;71039;49.500;10.418;2023-10-13T06:57:56;16.80;66.40
81630;DHT22;71039;49.500;10.418;2023-10-13T07:00:22;16.80;66.40
81630;DHT22;71039;49.500;10.418;2023-10-13T07:02:47;16.90;66.40
81630;DHT22;71039;49.500;10.418;2023-10-13T07:05:13;17.00;66.30
81630;DHT22;71039;49.500;10.418;2023-10-13T07:07:39;17.00;66.30
81630;DHT22;71039;49.500;10.418;2023-10-13T07:10:09;17.10;66.20
81630;DHT22;71039;49.500;10.418;2023-10-13T07:12:35;17.20;66.20
81630;DHT22;71039;49.500;10.418;2023-10-13T07:15:00;17.30;66.30
81630;DHT22;71039;49.500;10.418;2023-10-13T07:17:26;17.40;66.60
81630;DHT22;71039;49.500;10.418;2023-10-13T07:19:52;17.50;67.70
81630;DHT22;71039;49.500;10.418;2023-10-13T07:22:18;17.70;69.30
81630;DHT22;71039;49.500;10.418;2023-10-13T07:24:43;18.00;71.10
81630;DHT22;71039;49.500;10.418;2023-10-13T07:27:09;18.20;71.50
81630;DHT22;71039;49.500;10.418;2023-10-13T07:29:34;18.60;71.60
81630;DHT22;71039;49.500;10.418;2023-10-13T07:32:00;19.00;71.20
81630;DHT22;71039;49.500;10.418;2023-10-13T07:34:26;19.40;70.10
81630;DHT22;71039;49.500;10.418;2023-10-13T07:36:53;19.70;68.70
81630;DHT22;71039;49.500;10.418;2023-10-13T07:39:18;20.00;67.30
81630;DHT22;71039;49.500;10.418;2023-10-13T07:41:44;20.30;66.10
81630;DHT22;71039;49.500;10.418;2023-10-13T07:44:09;20.50;65.00
81630;DHT22;71039;49.500;10.418;2023-10-13T07:46:35;20.70;64.20
81630;DHT22;71039;49.500;10.418;2023-10-13T07:49:01;20.80;63.50
81630;DHT22;71039;49.500;10.418;2023-10-13T07:51:26;21.00;62.80
81630;DHT22;71039;49.500;10.418;2023-10-13T07:53:52;21.10;62.30
81630;DHT22;71039;49.500;10.418;2023-10-13T07:56:17;21.10;62.00
81630;DHT22;71039;49.500;10.418;2023-10-13T07:58:43;21.20;61.70
81630;DHT22;71039;49.500;10.418;2023-10-13T08:01:08;21.30;61.40
81630;DHT22;71039;49.500;10.418;2023-10-13T08:03:35;21.40;61.10
81630;DHT22;71039;49.500;10.418;2023-10-13T08:06:01;21.50;61.10
81630;DHT22;71039;49.500;10.418;2023-10-13T08:08:26;21.50;61.80
81630;DHT22;71039;49.500;10.418;2023-10-13T08:10:57;21.70;62.20
81630;DHT22;71039;49.500;10.418;2023-10-13T08:13:23;21.80;61.80
81630;DHT22;71039;49.500;10.418;2023-10-13T08:15:48;22.00;62.70
81630;DHT22;71039;49.500;10.418;2023-10-13T08:18:14;22.20;62.90
81630;DHT22;71039;49.500;10.418;2023-10-13T08:20:40;22.50;62.20
81630;DHT22;71039;49.500;10.418;2023-10-13T08:23:05;22.70;61.30
81630;DHT22;71039;49.500;10.418;2023-10-13T08:25:31;22.90;60.30
81630;DHT22;71039;49.500;10.418;2023-10-13T08:27:56;23.00;59.40
81630;DHT22;71039;49.500;10.418;2023-10-13T08:30:22;23.20;58.80
81630;DHT22;71039;49.500;10.418;2023-10-13T08:32:47;23.30;58.30
81630;DHT22;71039;49.500;10.418;2023-10-13T08:35:13;23.40;57.90
81630;DHT22;71039;49.500;10.418;2023-10-13T08:37:39;23.50;57.50
81630;DHT22;71039;49.500;10.418;2023-10-13T08:40:05;23.50;57.30
81630;DHT22;71039;49.500;10.418;2023-10-13T08:42:37;23.50;57.10
81630;DHT22;71039;49.500;10.418;2023-10-13T08:47:37;23.60;56.50
81630;DHT22;71039;49.500;10.418;2023-10-13T08:50:03;23.70;56.40
81630;DHT22;71039;49.500;10.418;2023-10-13T08:52:30;23.80;56.10
81630;DHT22;71039;49.500;10.418;2023-10-13T08:54:56;23.90;56.00
81630;DHT22;71039;49.500;10.418;2023-10-13T08:57:22;23.90;55.90
81630;DHT22;71039;49.500;10.418;2023-10-13T08:59:47;24.00;55.80
81630;DHT22;71039;49.500;10.418;2023-10-13T09:02:16;24.00;55.70
81630;DHT22;71039;49.500;10.418;2023-10-13T09:04:43;24.10;55.50
81630;DHT22;71039;49.500;10.418;2023-10-13T09:07:08;24.20;55.50
81630;DHT22;71039;49.500;10.418;2023-10-13T09:09:50;24.20;55.30
81630;DHT22;71039;49.500;10.418;2023-10-13T09:12:20;24.40;54.80
81630;DHT22;71039;49.500;10.418;2023-10-13T09:14:56;24.40;56.00
81630;DHT22;71039;49.500;10.418;2023-10-13T09:17:21;24.60;55.30
81630;DHT22;71039;49.500;10.418;2023-10-13T09:19:51;24.80;56.80
81630;DHT22;71039;49.500;10.418;2023-10-13T09:22:26;25.00;56.20
81630;DHT22;71039;49.500;10.418;2023-10-13T09:24:58;25.30;55.30
81630;DHT22;71039;49.500;10.418;2023-10-13T09:27:28;25.50;54.70
81630;DHT22;71039;49.500;10.418;2023-10-13T09:29:58;25.70;54.20
81630;DHT22;71039;49.500;10.418;2023-10-13T09:32:23;25.80;53.60
81630;DHT22;71039;49.500;10.418;2023-10-13T09:34:49;26.00;53.30
81630;DHT22;71039;49.500;10.418;2023-10-13T09:37:14;26.10;52.90
81630;DHT22;71039;49.500;10.418;2023-10-13T09:39:42;26.20;52.70
81630;DHT22;71039;49.500;10.418;2023-10-13T09:42:07;26.30;52.30
81630;DHT22;71039;49.500;10.418;2023-10-13T09:44:33;26.40;52.00
81630;DHT22;71039;49.500;10.418;2023-10-13T09:47:01;26.40;51.60
81630;DHT22;71039;49.500;10.418;2023-10-13T09:49:27;26.40;51.10
81630;DHT22;71039;49.500;10.418;2023-10-13T09:51:54;26.50;50.80
81630;DHT22;71039;49.500;10.418;2023-10-13T09:54:21;26.50;50.50
81630;DHT22;71039;49.500;10.418;2023-10-13T09:57:08;26.50;50.20
81630;DHT22;71039;49.500;10.418;2023-10-13T09:59:42;26.50;48.80
81630;DHT22;71039;49.500;10.418;2023-10-13T10:02:10;26.60;49.50
81630;DHT22;71039;49.500;10.418;2023-10-13T10:04:36;26.60;49.80
81630;DHT22;71039;49.500;10.418;2023-10-13T10:07:02;26.60;49.50
81630;DHT22;71039;49.500;10.418;2023-10-13T10:09:33;26.60;49.20
81630;DHT22;71039;49.500;10.418;2023-10-13T10:17:21;26.60;46.80
81630;DHT22;71039;49.500;10.418;2023-10-13T10:19:52;26.50;47.90
81630;DHT22;71039;49.500;10.418;2023-10-13T10:22:31;26.60;48.40
81630;DHT22;71039;49.500;10.418;2023-10-13T10:25:00;26.60;47.60
81630;DHT22;71039;49.500;10.418;2023-10-13T10:27:30;26.60;47.70
81630;DHT22;71039;49.500;10.418;2023-10-13T10:29:57;26.60;47.50
81630;DHT22;71039;49.500;10.418;2023-10-13T10:35:09;26.70;46.40
81630;DHT22;71039;49.500;10.418;2023-10-13T10:37:36;26.80;46.90
81630;DHT22;71039;49.500;10.418;2023-10-13T10:40:10;26.90;47.30
81630;DHT22;71039;49.500;10.418;2023-10-13T10:42:35;26.90;46.80
81630;DHT22;71039;49.500;10.418;2023-10-13T10:45:01;27.00;47.00
81630;DHT22;71039;49.500;10.418;2023-10-13T10:47:27;27.10;46.80
81630;DHT22;71039;49.500;10.418;2023-10-13T10:49:52;27.10;46.70
81630;DHT22;71039;49.500;10.418;2023-10-13T10:52:18;27.20;46.50
81630;DHT22;71039;49.500;10.418;2023-10-13T10:54:44;27.30;46.40
81630;DHT22;71039;49.500;10.418;2023-10-13T10:57:11;27.40;46.20
81630;DHT22;71039;49.500;10.418;2023-10-13T10:59:38;27.40;46.00
81630;DHT22;71039;49.500;10.418;2023-10-13T11:02:03;27.50;45.80
81630;DHT22;71039;49.500;10.418;2023-10-13T11:04:29;27.50;45.70
81630;DHT22;71039;49.500;10.418;2023-10-13T11:06:56;27.70;45.50
81630;DHT22;71039;49.500;10.418;2023-10-13T11:09:32;27.70;45.20
81630;DHT22;71039;49.500;10.418;2023-10-13T11:14:29;27.90;44.40
81630;DHT22;71039;49.500;10.418;2023-10-13T11:16:57;27.90;44.80
81630;DHT22;71039;49.500;10.418;2023-10-13T11:19:36;28.00;44.70
81630;DHT22;71039;49.500;10.418;2023-10-13T11:22:16;28.00;43.50
81630;DHT22;71039;49.500;10.418;2023-10-13T11:24:42;28.10;43.70
81630;DHT22;71039;49.500;10.418;2023-10-13T11:27:15;28.20;44.50
81630;DHT22;71039;49.500;10.418;2023-10-13T11:29:41;28.30;43.40
81630;DHT22;71039;49.500;10.418;2023-10-13T11:32:06;28.30;43.90
81630;DHT22;71039;49.500;10.418;2023-10-13T11:34:32;28.40;43.60
81630;DHT22;71039;49.500;10.418;2023-10-13T11:36:58;28.50;43.60
81630;DHT22;71039;49.500;10.418;2023-10-13T11:39:24;28.50;43.40
81630;DHT22;71039;49.500;10.418;2023-10-13T11:41:50;28.60;43.20
81630;DHT22;71039;49.500;10.418;2023-10-13T11:44:15;28.60;43.00
81630;DHT22;71039;49.500;10.418;2023-10-13T11:46:41;28.70;42.70
81630;DHT22;71039;49.500;10.418;2023-10-13T11:49:08;28.80;42.60
81630;DHT22;71039;49.500;10.418;2023-10-13T11:51:34;28.90;42.40
81630;DHT22;71039;49.500;10.418;2023-10-13T11:53:59;28.90;42.20
81630;DHT22;71039;49.500;10.418;2023-10-13T11:56:25;28.90;42.00
81630;DHT22;71039;49.500;10.418;2023-10-13T11:58:51;29.00;41.80
81630;DHT22;71039;49.500;10.418;2023-10-13T12:01:17;29.00;41.50
81630;DHT22;71039;49.500;10.418;2023-10-13T12:03:44;29.00;41.20
81630;DHT22;71039;49.500;10.418;2023-10-13T12:06:10;29.10;41.00
81630;DHT22;71039;49.500;10.418;2023-10-13T12:08:35;29.00;40.90
81630;DHT22;71039;49.500;10.418;2023-10-13T12:11:01;29.00;40.90
81630;DHT22;71039;49.500;10.418;2023-10-13T12:13:26;29.00;40.90
81630;DHT22;71039;49.500;10.418;2023-10-13T12:15:52;29.00;40.70
81630;DHT22;71039;49.500;10.418;2023-10-13T12:18:17;29.00;40.50
81630;DHT22;71039;49.500;10.418;2023-10-13T12:20:43;29.00;40.60
81630;DHT22;71039;49.500;10.418;2023-10-13T12:23:08;29.00;40.60
81630;DHT22;71039;49.500;10.418;2023-10-13T12:25:36;29.10;40.60
81630;DHT22;71039;49.500;10.418;2023-10-13T12:28:01;29.10;40.60
81630;DHT22;71039;49.500;10.418;2023-10-13T12:30:27;29.10;40.60
81630;DHT22;71039;49.500;10.418;2023-10-13T12:32:52;29.20;40.60
81630;DHT22;71039;49.500;10.418;2023-10-13T12:35:18;29.30;40.60
81630;DHT22;71039;49.500;10.418;2023-10-13T12:37:43;29.30;40.50
81630;DHT22;71039;49.500;10.418;2023-10-13T12:40:10;29.40;40.20
81630;DHT22;71039;49.500;10.418;2023-10-13T12:42:37;29.50;40.00
81630;DHT22;71039;49.500;10.418;2023-10-13T12:45:02;29.50;39.90
81630;DHT22;71039;49.500;10.418;2023-10-13T12:47:28;29.50;39.90
81630;DHT22;71039;49.500;10.418;2023-10-13T12:49:53;29.70;39.70
81630;DHT22;71039;49.500;10.418;2023-10-13T12:52:19;29.70;39.40
81630;DHT22;71039;49.500;10.418;2023-10-13T12:54:48;29.70;39.20
81630;DHT22;71039;49.500;10.418;2023-10-13T12:57:15;29.80;38.60
81630;DHT22;71039;49.500;10.418;2023-10-13T12:59:40;29.90;38.60
81630;DHT22;71039;49.500;10.418;2023-10-13T13:02:06;29.90;38.60
81630;DHT22;71039;49.500;10.418;2023-10-13T13:04:31;29.90;38.60
81630;DHT22;71039;49.500;10.418;2023-10-13T13:06:57;29.90;38.50
81630;DHT22;71039;49.500;10.418;2023-10-13T13:09:22;30.00;38.30
81630;DHT22;71039;49.500;10.418;2023-10-13T13:11:48;30.00;38.10
81630;DHT22;71039;49.500;10.418;2023-10-13T13:14:13;30.00;37.80
81630;DHT22;71039;49.500;10.418;2023-10-13T13:16:39;30.00;37.70
81630;DHT22;71039;49.500;10.418;2023-10-13T13:19:05;30.00;37.70
81630;DHT22;71039;49.500;10.418;2023-10-13T13:21:30;30.00;37.60
81630;DHT22;71039;49.500;10.418;2023-10-13T13:23:56;30.00;37.70
81630;DHT22;71039;49.500;10.418;2023-10-13T13:26:24;30.00;37.70
81630;DHT22;71039;49.500;10.418;2023-10-13T13:28:50;30.00;37.30
81630;DHT22;71039;49.500;10.418;2023-10-13T13:31:19;30.10;37.50
81630;DHT22;71039;49.500;10.418;2023-10-13T13:33:45;30.10;37.00
81630;DHT22;71039;49.500;10.418;2023-10-13T13:36:11;30.10;37.20
81630;DHT22;71039;49.500;10.418;2023-10-13T13:38:36;30.20;37.00
81630;DHT22;71039;49.500;10.418;2023-10-13T13:41:02;30.20;36.80
81630;DHT22;71039;49.500;10.418;2023-10-13T13:43:27;30.30;36.70
81630;DHT22;71039;49.500;10.418;2023-10-13T13:45:53;30.20;36.60
81630;DHT22;71039;49.500;10.418;2023-10-13T13:48:18;30.30;36.60
81630;DHT22;71039;49.500;10.418;2023-10-13T13:50:44;30.20;36.60
81630;DHT22;71039;49.500;10.418;2023-10-13T13:53:09;30.30;36.40
81630;DHT22;71039;49.500;10.418;2023-10-13T13:55:35;30.30;36.30
81630;DHT22;71039;49.500;10.418;2023-10-13T13:58:01;30.30;36.30
81630;DHT22;71039;49.500;10.418;2023-10-13T14:00:27;30.30;36.30
81630;DHT22;71039;49.500;10.418;2023-10-13T14:02:52;30.30;36.30
81630;DHT22;71039;49.500;10.418;2023-10-13T14:05:18;30.30;36.40
81630;DHT22;71039;49.500;10.418;2023-10-13T14:07:44;30.30;36.40
81630;DHT22;71039;49.500;10.418;2023-10-13T14:10:09;30.40;36.40
81630;DHT22;71039;49.500;10.418;2023-10-13T14:12:35;30.50;36.30
81630;DHT22;71039;49.500;10.418;2023-10-13T14:15:03;30.50;36.00
81630;DHT22;71039;49.500;10.418;2023-10-13T14:17:29;30.50;35.80
81630;DHT22;71039;49.500;10.418;2023-10-13T14:19:56;30.60;35.70
81630;DHT22;71039;49.500;10.418;2023-10-13T14:22:22;30.60;35.60
81630;DHT22;71039;49.500;10.418;2023-10-13T14:24:47;30.60;35.50
81630;DHT22;71039;49.500;10.418;2023-10-13T14:27:13;30.60;35.40
81630;DHT22;71039;49.500;10.418;2023-10-13T14:29:39;30.70;35.20
81630;DHT22;71039;49.500;10.418;2023-10-13T14:32:04;30.70;35.00
81630;DHT22;71039;49.500;10.418;2023-10-13T14:34:30;30.70;34.80
81630;DHT22;71039;49.500;10.418;2023-10-13T14:36:55;30.70;34.70
81630;DHT22;71039;49.500;10.418;2023-10-13T14:39:21;30.70;34.60
81630;DHT22;71039;49.500;10.418;2023-10-13T14:41:49;30.70;34.50
81630;DHT22;71039;49.500;10.418;2023-10-13T14:44:15;30.70;34.10
81630;DHT22;71039;49.500;10.418;2023-10-13T14:46:40;30.60;34.30
81630;DHT22;71039;49.500;10.418;2023-10-13T14:49:06;30.60;34.20
81630;DHT22;71039;49.500;10.418;2023-10-13T14:51:32;30.60;34.10
81630;DHT22;71039;49.500;10.418;2023-10-13T14:53:58;30.50;34.00
81630;DHT22;71039;49.500;10.418;2023-10-13T14:56:24;30.50;34.00
81630;DHT22;71039;49.500;10.418;2023-10-13T14:58:49;30.50;33.90
81630;DHT22;71039;49.500;10.418;2023-10-13T15:01:16;30.40;33.90
81630;DHT22;71039;49.500;10.418;2023-10-13T15:03:45;30.30;33.80
81630;DHT22;71039;49.500;10.418;2023-10-13T15:06:18;30.30;33.70
81630;DHT22;71039;49.500;10.418;2023-10-13T15:08:45;30.10;33.30
81630;DHT22;71039;49.500;10.418;2023-10-13T15:11:11;30.10;33.90
81630;DHT22;71039;49.500;10.418;2023-10-13T15:13:36;30.00;33.90
81630;DHT22;71039;49.500;10.418;2023-10-13T15:16:02;30.00;33.90
81630;DHT22;71039;49.500;10.418;2023-10-13T15:18:37;29.90;34.00
81630;DHT22;71039;49.500;10.418;2023-10-13T15:21:02;29.80;34.00
81630;DHT22;71039;49.500;10.418;2023-10-13T15:23:28;29.70;34.00